Home / US / California / Mission Beach

Mission Beach, CA Weather

Current Report for Wed Jun 19 2019

As of 7:51 AM PDT WED JUN 19 2019

63°F 17°cMission Beach weather conditions : Overcast

Overcast

Barometer: 29.99 inHg. steady

Humidity: 76%

Wind: W. 4mph

Wind Gust: 6mph

Wind Chill: 63°F

Dew Point: 55°F / 13°C steady

Visibility: 10.00mi.

Sunrise: 5:40 AM

Sunset: 7:58 PM

Moon Phase: Waning Gibbous Moon

Daily and Hourly Summary

Loading Mission Beach CA Summary and Hourly data for today, tonight and tomorrow...
Forecast for Mission Beach, CA:
(Forecast based on TAF for )
1200 PM PDT WED JUN 19 2019
  
AFTERNOON EVENING OVERNIGHT
Partly Cloudy Partly Cloudy Partly Cloudy
Partly
Cloudy
Partly
Cloudy
Partly
Cloudy
Original Encoded TAF:
Dated: 1200 PM PDT WED JUN 19 2019
2019/06/19 15:39
TAF 
      AMD KSAN 191436Z 1915/2018 VRB03KT P6SM OVC015 
     FM191900 27008KT P6SM SCT015 
     FM200300 VRB04KT P6SM OVC013

Temperatures Today (View More Charts)

Mission Beach, CA updates by locals

Write your own report, forecast, or traffic update:

Please note by clicking on "Post" you acknowledge that you have read the Terms of Service and the report and/or forecast you are posting is in compliance with such terms. Be respectful. An inappropriate post will be removed by a moderator. If you are not finding the information you want, please be sure to note the navigation tabs just above the breadcrumbs, which are links to other data relating to this city.
Become A Member